Time;durP1;ratioP1;P1;durP2;ratioP2;P2;SDS_P1;SDS_P2;PMS_P1;PMS_P2;Temp;Humidity;BMP_temperature;BMP_pressure;BME280_temperature;BME280_humidity;BME280_pressure;Samples;Min_cycle;Max_cycle;Signal;HPM_P1;HPM_P2
2021/04/02 00:01:08;;;;;;;8.82;2.05;;;19.90;28.70;;;;;;6286715;28;20479;-79
2021/04/02 00:04:11;;;;;;;6.22;1.88;;;19.80;28.60;;;;;;6264595;28;20036;-79
2021/04/02 00:07:12;;;;;;;6.95;2.25;;;19.80;28.60;;;;;;6252658;28;20028;-80
2021/04/02 00:10:24;;;;;;;10.15;2.53;;;19.70;28.60;;;;;;6273551;28;20043;-79
2021/04/02 00:13:34;;;;;;;5.07;2.40;;;19.40;28.70;;;;;;6255751;28;20444;-79
2021/04/02 00:16:37;;;;;;;6.50;2.05;;;19.60;28.80;;;;;;6275941;28;20043;-79
2021/04/02 00:19:38;;;;;;;5.03;2.28;;;19.60;28.90;;;;;;6266116;28;20048;-79
2021/04/02 00:22:39;;;;;;;5.30;1.95;;;19.50;29.40;;;;;;6243247;28;20456;-79
2021/04/02 00:25:40;;;;;;;4.43;2.10;;;19.50;29.00;;;;;;6286067;28;20029;-78
2021/04/02 00:28:43;;;;;;;4.47;2.10;;;19.50;29.10;;;;;;6261372;28;20038;-77
2021/04/02 00:31:44;;;;;;;11.10;2.30;;;19.50;29.10;;;;;;6275023;28;20033;-79
2021/04/02 00:34:45;;;;;;;7.22;2.30;;;19.50;29.20;;;;;;6264444;28;20041;-79
2021/04/02 00:37:46;;;;;;;8.25;1.95;;;19.50;29.80;;;;;;6276102;28;20048;-80
2021/04/02 00:40:55;;;;;;;6.07;2.20;;;19.40;29.30;;;;;;6258525;28;20033;-80
2021/04/02 00:43:55;;;;;;;5.68;2.10;;;19.50;29.60;;;;;;6268003;28;20044;-79
2021/04/02 00:46:56;;;;;;;8.13;2.40;;;19.40;29.40;;;;;;6283350;28;20398;-79
2021/04/02 00:49:57;;;;;;;5.03;2.13;;;19.40;29.60;;;;;;6268282;28;20494;-79
2021/04/02 00:52:59;;;;;;;12.60;2.15;;;19.40;29.80;;;;;;6258531;28;22976;-79
2021/04/02 00:56:01;;;;;;;3.95;2.20;;;19.40;30.00;;;;;;6245673;28;20094;-79
2021/04/02 00:59:03;;;;;;;5.22;2.47;;;19.30;30.30;;;;;;6264989;28;20115;-80
2021/04/02 01:02:04;;;;;;;4.28;1.83;;;19.30;30.20;;;;;;6257396;28;20479;-79
2021/04/02 01:05:15;;;;;;;8.20;2.20;;;19.20;30.20;;;;;;6274849;28;20048;-79
2021/04/02 01:08:20;;;;;;;7.82;2.42;;;19.20;30.10;;;;;;6259983;28;20033;-79
2021/04/02 01:11:24;;;;;;;7.95;2.33;;;19.20;30.20;;;;;;6251839;28;20048;-79
2021/04/02 01:14:27;;;;;;;6.40;2.08;;;19.20;30.50;;;;;;6254169;28;20107;-80
2021/04/02 01:17:29;;;;;;;4.97;2.17;;;19.10;30.80;;;;;;6274827;28;20554;-79
2021/04/02 01:20:33;;;;;;;6.18;2.30;;;19.10;30.70;;;;;;6241938;28;20183;-80
2021/04/02 01:24:03;;;;;;;6.90;2.20;;;19.10;30.90;;;;;;6257975;28;20064;-80
2021/04/02 01:27:33;;;;;;;7.05;2.10;;;19.00;31.30;;;;;;6172150;28;20098;-80
2021/04/02 01:30:37;;;;;;;4.10;1.80;;;19.00;32.30;;;;;;6144915;28;20081;-80
2021/04/02 01:33:40;;;;;;;5.03;2.10;;;19.00;33.90;;;;;;6153436;28;20454;-80
2021/04/02 01:36:44;;;;;;;2.65;1.80;;;19.00;34.90;;;;;;6151145;28;20032;-79
2021/04/02 01:39:47;;;;;;;6.40;2.10;;;18.90;35.20;;;;;;6166087;28;20054;-80
2021/04/02 01:42:51;;;;;;;9.85;2.50;;;18.90;35.70;;;;;;6142993;28;20414;-80
2021/04/02 01:45:53;;;;;;;5.82;1.70;;;18.80;35.90;;;;;;6139036;28;20047;-80
2021/04/02 01:49:00;;;;;;;5.30;1.83;;;18.80;36.30;;;;;;6161882;28;20045;-80
2021/04/02 01:52:06;;;;;;;4.68;1.80;;;18.80;36.80;;;;;;6154294;28;20124;-80
2021/04/02 01:55:09;;;;;;;7.40;2.08;;;18.80;37.00;;;;;;6144718;28;20433;-80
2021/04/02 01:58:12;;;;;;;4.72;1.98;;;18.80;36.80;;;;;;6171835;28;20038;-80
2021/04/02 02:01:17;;;;;;;3.88;2.00;;;18.70;36.90;;;;;;6124586;28;20062;-80
2021/04/02 02:04:21;;;;;;;4.13;1.85;;;18.70;37.00;;;;;;6229595;28;20040;-80
2021/04/02 02:07:24;;;;;;;5.53;1.88;;;18.60;37.30;;;;;;6263080;28;20045;-80
2021/04/02 02:10:34;;;;;;;8.55;2.10;;;18.60;37.40;;;;;;6256092;28;20041;-79
2021/04/02 02:13:51;;;;;;;2.47;1.70;;;18.50;37.90;;;;;;6256369;28;20037;-79
2021/04/02 02:17:02;;;;;;;3.53;1.48;;;18.50;38.00;;;;;;6252924;28;20463;-80
2021/04/02 02:20:08;;;;;;;5.50;2.20;;;18.40;38.20;;;;;;6291146;28;20489;-80
2021/04/02 02:23:10;;;;;;;4.25;1.80;;;18.40;38.40;;;;;;6281011;28;20025;-80
2021/04/02 02:26:18;;;;;;;3.80;1.80;;;18.40;39.00;;;;;;6296896;28;20024;-80
2021/04/02 02:29:23;;;;;;;8.85;1.77;;;18.30;39.20;;;;;;6254657;28;20363;-81
2021/04/02 02:32:26;;;;;;;3.38;2.17;;;18.30;39.20;;;;;;6258175;28;20045;-79
2021/04/02 02:35:28;;;;;;;4.60;1.98;;;18.20;39.60;;;;;;6272313;28;20037;-80
2021/04/02 02:38:30;;;;;;;4.38;1.60;;;18.20;39.80;;;;;;6270263;28;20103;-80
2021/04/02 02:41:32;;;;;;;2.80;1.95;;;18.10;40.30;;;;;;6270345;28;20044;-80
2021/04/02 02:44:37;;;;;;;6.60;1.77;;;18.00;40.30;;;;;;6254643;28;20449;-80
2021/04/02 02:47:40;;;;;;;3.67;1.80;;;18.00;40.30;;;;;;6242290;28;20036;-81
2021/04/02 02:50:47;;;;;;;3.20;2.15;;;18.00;40.70;;;;;;6278729;28;20045;-80
2021/04/02 02:53:50;;;;;;;6.35;1.98;;;17.90;41.10;;;;;;6270004;28;20097;-80
2021/04/02 02:56:55;;;;;;;4.88;1.83;;;17.90;40.90;;;;;;6272540;28;20053;-80
2021/04/02 02:59:59;;;;;;;4.60;2.00;;;17.90;41.10;;;;;;6249677;28;20025;-79
2021/04/02 03:03:03;;;;;;;4.03;2.15;;;17.80;41.10;;;;;;6273246;28;20340;-80
2021/04/02 03:06:08;;;;;;;5.43;1.95;;;17.80;41.10;;;;;;6256458;28;20072;-80
2021/04/02 03:09:15;;;;;;;5.25;2.05;;;17.80;41.10;;;;;;6260758;28;20033;-79
2021/04/02 03:12:19;;;;;;;7.68;1.75;;;17.80;41.10;;;;;;6255720;28;20072;-79
2021/04/02 03:15:24;;;;;;;4.10;2.13;;;17.80;41.20;;;;;;6285596;28;20527;-78
2021/04/02 03:18:27;;;;;;;3.78;1.48;;;17.70;41.10;;;;;;6251049;28;20356;-79
2021/04/02 03:21:31;;;;;;;6.97;1.95;;;17.70;41.20;;;;;;6277921;28;20041;-79
2021/04/02 03:24:42;;;;;;;5.20;2.30;;;17.70;41.30;;;;;;6245218;28;20123;-79
2021/04/02 03:27:50;;;;;;;6.88;2.63;;;17.70;41.60;;;;;;6278172;28;20044;-79
2021/04/02 03:30:59;;;;;;;5.28;2.70;;;17.60;41.60;;;;;;6248875;28;20063;-81
2021/04/02 03:34:12;;;;;;;8.88;1.92;;;17.60;41.70;;;;;;6260275;28;20116;-80
2021/04/02 03:37:16;;;;;;;10.83;2.43;;;17.60;42.20;;;;;;6281645;28;20463;-80
2021/04/02 03:40:27;;;;;;;6.50;2.13;;;17.50;42.30;;;;;;6283162;28;20259;-80
2021/04/02 03:43:32;;;;;;;4.20;2.13;;;17.50;42.30;;;;;;6271439;28;20037;-80
2021/04/02 03:46:36;;;;;;;3.90;2.05;;;17.40;42.30;;;;;;6253658;28;20102;-80
2021/04/02 03:49:38;;;;;;;7.15;2.20;;;17.40;42.40;;;;;;6261222;28;20052;-80
2021/04/02 03:52:56;;;;;;;7.13;2.30;;;17.30;42.50;;;;;;6279677;28;20464;-78
2021/04/02 03:56:01;;;;;;;4.75;1.70;;;17.30;42.60;;;;;;6266927;28;20040;-79
2021/04/02 03:59:08;;;;;;;11.30;2.70;;;17.30;42.60;;;;;;6257990;28;20040;-79
2021/04/02 04:02:16;;;;;;;4.45;1.65;;;17.30;42.60;;;;;;6251162;28;20423;-79
2021/04/02 04:05:22;;;;;;;6.05;2.05;;;17.30;42.90;;;;;;6275046;28;20040;-79
2021/04/02 04:08:25;;;;;;;4.15;2.15;;;17.20;43.10;;;;;;6248677;28;20056;-79
2021/04/02 04:11:31;;;;;;;4.07;1.92;;;17.20;43.30;;;;;;6258111;28;20052;-78
2021/04/02 04:14:36;;;;;;;3.22;1.92;;;17.10;43.30;;;;;;6275230;28;20037;-80
2021/04/02 04:17:41;;;;;;;7.53;2.25;;;17.10;43.40;;;;;;6274942;28;20471;-79
2021/04/02 04:20:45;;;;;;;5.95;2.17;;;17.10;43.40;;;;;;6274305;28;20068;-79
2021/04/02 04:23:53;;;;;;;4.85;2.03;;;17.10;43.50;;;;;;6260295;28;20029;-80
2021/04/02 04:26:57;;;;;;;6.60;2.10;;;17.10;44.10;;;;;;6282640;28;20093;-80
2021/04/02 04:30:00;;;;;;;3.70;1.65;;;17.00;43.40;;;;;;6283542;28;20063;-81
2021/04/02 04:33:02;;;;;;;6.03;2.05;;;17.00;43.70;;;;;;6298413;28;20032;-79
2021/04/02 04:36:05;;;;;;;4.22;2.10;;;17.00;43.80;;;;;;6286919;28;20033;-80
2021/04/02 04:39:07;;;;;;;7.22;2.40;;;17.00;44.10;;;;;;6276392;28;20040;-80
2021/04/02 04:42:11;;;;;;;2.38;1.70;;;16.90;44.00;;;;;;6274951;28;20057;-78
2021/04/02 04:45:21;;;;;;;7.10;2.35;;;16.90;44.20;;;;;;6245520;28;20039;-80
2021/04/02 04:48:23;;;;;;;4.03;2.13;;;17.00;44.10;;;;;;6269520;28;20040;-78
2021/04/02 04:51:29;;;;;;;4.57;2.20;;;16.90;44.10;;;;;;6257921;28;20104;-79
2021/04/02 04:54:33;;;;;;;5.00;1.95;;;16.90;44.20;;;;;;6221086;28;20120;-80
2021/04/02 04:57:37;;;;;;;4.80;2.38;;;16.80;44.10;;;;;;6280619;28;20410;-79
2021/04/02 05:00:41;;;;;;;4.45;1.90;;;16.80;44.20;;;;;;6266709;28;20043;-80
2021/04/02 05:03:42;;;;;;;13.82;2.28;;;16.70;44.20;;;;;;6272566;28;20410;-78
2021/04/02 05:06:45;;;;;;;6.05;2.03;;;16.70;44.30;;;;;;6257680;28;20033;-78
2021/04/02 05:09:50;;;;;;;6.32;2.35;;;16.60;44.40;;;;;;6257763;28;20112;-79
2021/04/02 05:12:51;;;;;;;5.78;2.33;;;16.60;44.70;;;;;;6276791;28;20033;-80
2021/04/02 05:15:54;;;;;;;6.20;2.33;;;16.60;44.80;;;;;;6255295;28;20040;-77
2021/04/02 05:18:58;;;;;;;6.82;2.40;;;16.50;44.80;;;;;;6270389;28;20032;-79
2021/04/02 05:21:59;;;;;;;11.77;1.98;;;16.60;44.90;;;;;;6274418;28;20071;-78
2021/04/02 05:25:00;;;;;;;6.60;2.20;;;16.50;44.80;;;;;;6268507;28;20206;-77
2021/04/02 05:28:02;;;;;;;5.93;2.50;;;16.60;45.00;;;;;;6246728;28;20438;-78
2021/04/02 05:31:04;;;;;;;7.80;2.60;;;16.60;45.00;;;;;;6245648;28;20102;-76
2021/04/02 05:34:05;;;;;;;7.45;2.50;;;16.60;45.00;;;;;;6254282;28;20040;-75
2021/04/02 05:37:08;;;;;;;4.68;2.30;;;16.60;45.00;;;;;;6270452;28;20473;-77
2021/04/02 05:40:10;;;;;;;3.97;2.15;;;16.50;45.00;;;;;;6296237;28;20040;-75
2021/04/02 05:43:36;;;;;;;5.80;2.17;;;16.40;45.00;;;;;;6296896;28;20033;-75
2021/04/02 05:46:40;;;;;;;8.13;2.25;;;16.50;45.10;;;;;;6244947;28;20060;-76
2021/04/02 05:49:43;;;;;;;11.07;2.63;;;16.40;44.90;;;;;;6244707;28;20136;-75
2021/04/02 05:52:48;;;;;;;9.82;2.58;;;16.40;44.90;;;;;;6269097;28;20037;-78
2021/04/02 05:55:54;;;;;;;13.68;2.90;;;16.30;44.70;;;;;;6268761;28;20094;-77
2021/04/02 05:58:56;;;;;;;3.40;2.08;;;16.20;44.70;;;;;;6255004;28;20039;-76
2021/04/02 06:01:57;;;;;;;7.07;3.38;;;16.20;44.80;;;;;;6269531;28;20041;-77
2021/04/02 06:05:00;;;;;;;6.25;2.45;;;16.20;45.00;;;;;;6257950;28;20044;-75
2021/04/02 06:08:02;;;;;;;12.23;2.47;;;16.20;45.10;;;;;;6254796;28;20044;-76
2021/04/02 06:11:03;;;;;;;6.07;2.65;;;16.20;45.10;;;;;;6254576;28;20487;-76
2021/04/02 06:14:05;;;;;;;6.78;2.55;;;16.20;45.00;;;;;;6254630;28;20036;-76
2021/04/02 06:17:06;;;;;;;5.18;2.97;;;16.30;45.20;;;;;;6245174;28;20447;-78
2021/04/02 06:20:07;;;;;;;6.43;2.83;;;16.30;45.40;;;;;;6225806;28;20056;-80
2021/04/02 06:23:24;;;;;;;6.40;3.20;;;16.30;45.50;;;;;;6254594;28;20364;-78
2021/04/02 06:26:25;;;;;;;5.88;2.35;;;16.30;45.60;;;;;;6268387;28;20024;-78
2021/04/02 06:29:27;;;;;;;5.65;2.55;;;16.20;45.60;;;;;;6282570;28;20025;-78
2021/04/02 06:32:42;;;;;;;5.20;2.95;;;16.20;45.70;;;;;;6242824;28;20029;-77
2021/04/02 06:35:44;;;;;;;5.40;2.75;;;16.30;45.70;;;;;;6238193;28;20120;-79
2021/04/02 06:38:54;;;;;;;7.10;2.97;;;16.40;45.70;;;;;;6271247;28;20029;-78
2021/04/02 06:41:58;;;;;;;10.30;3.63;;;16.50;45.50;;;;;;6239345;28;20374;-78
2021/04/02 06:45:06;;;;;;;9.18;3.33;;;16.50;45.20;;;;;;6253656;28;20033;-77
2021/04/02 06:48:12;;;;;;;7.07;2.90;;;16.60;45.00;;;;;;6274685;28;20045;-77
2021/04/02 06:51:16;;;;;;;7.93;2.83;;;16.60;44.90;;;;;;6252856;28;20124;-78
2021/04/02 06:54:19;;;;;;;6.82;3.17;;;16.70;44.90;;;;;;6243685;28;20477;-77
2021/04/02 06:57:28;;;;;;;11.00;3.10;;;16.80;44.70;;;;;;6242087;28;20033;-77
2021/04/02 07:00:29;;;;;;;10.38;3.33;;;16.80;44.50;;;;;;6237336;28;20037;-79
2021/04/02 07:03:32;;;;;;;11.52;3.33;;;16.90;44.30;;;;;;6275585;28;20075;-78
2021/04/02 07:06:33;;;;;;;20.35;3.47;;;17.00;44.30;;;;;;6265522;28;20025;-78
2021/04/02 07:09:39;;;;;;;14.00;4.22;;;17.10;44.10;;;;;;6277262;28;20075;-78
2021/04/02 07:12:44;;;;;;;10.30;3.75;;;17.20;44.10;;;;;;6298432;28;20029;-78
2021/04/02 07:15:50;;;;;;;8.93;4.05;;;17.30;44.00;;;;;;6296549;28;20041;-78
2021/04/02 07:18:51;;;;;;;11.23;4.10;;;17.40;43.90;;;;;;6247671;28;20064;-78
2021/04/02 07:21:53;;;;;;;7.10;3.45;;;17.40;43.70;;;;;;6269821;28;20063;-79
2021/04/02 07:24:55;;;;;;;7.00;3.50;;;17.60;43.60;;;;;;6266959;28;20037;-77
2021/04/02 07:27:57;;;;;;;9.70;3.47;;;17.60;43.50;;;;;;6243050;28;20114;-78
2021/04/02 07:30:59;;;;;;;15.05;3.70;;;17.70;43.30;;;;;;6279427;28;20029;-78
2021/04/02 07:34:00;;;;;;;8.30;3.95;;;17.90;43.80;;;;;;6259788;28;20028;-78
2021/04/02 07:37:02;;;;;;;7.35;3.25;;;17.90;43.00;;;;;;6220563;28;20044;-78
2021/04/02 07:40:08;;;;;;;8.35;3.25;;;18.10;42.90;;;;;;6275550;28;20036;-78
2021/04/02 07:43:09;;;;;;;7.45;3.05;;;18.30;42.70;;;;;;6260533;28;20041;-78
2021/04/02 07:46:18;;;;;;;10.70;3.10;;;18.40;42.50;;;;;;6258710;28;20479;-77
2021/04/02 07:49:30;;;;;;;8.13;3.05;;;18.70;42.30;;;;;;6260808;28;20041;-81
2021/04/02 07:52:43;;;;;;;12.23;3.20;;;18.90;41.70;;;;;;6271527;28;20044;-77
2021/04/02 07:56:02;;;;;;;12.93;3.47;;;19.10;41.10;;;;;;6250550;28;20468;-78
2021/04/02 07:59:05;;;;;;;11.82;3.22;;;19.20;40.90;;;;;;6253016;28;20167;-79
2021/04/02 08:02:28;;;;;;;8.93;3.00;;;19.30;40.40;;;;;;6265831;28;20339;-77
2021/04/02 08:05:30;;;;;;;12.00;3.28;;;19.40;40.40;;;;;;6237580;28;20060;-78
2021/04/02 08:08:41;;;;;;;5.70;2.78;;;19.50;39.90;;;;;;6266525;28;20041;-77
2021/04/02 08:11:46;;;;;;;9.55;3.22;;;19.60;39.30;;;;;;6271433;28;20106;-79
2021/04/02 08:14:51;;;;;;;9.15;2.75;;;19.70;38.70;;;;;;6301110;28;20040;-78
2021/04/02 08:17:55;;;;;;;6.68;2.85;;;19.70;38.50;;;;;;6288798;28;20384;-77
2021/04/02 08:20:56;;;;;;;8.90;2.88;;;19.70;38.50;;;;;;6271435;28;20045;-79
2021/04/02 08:23:58;;;;;;;11.82;2.60;;;19.90;38.50;;;;;;6300031;28;20052;-78
2021/04/02 08:27:00;;;;;;;12.73;3.33;;;19.90;38.00;;;;;;6258612;28;20045;-77
2021/04/02 08:30:05;;;;;;;8.13;3.35;;;20.10;37.90;;;;;;6288896;28;20032;-79
2021/04/02 08:33:07;;;;;;;15.65;2.97;;;20.30;37.90;;;;;;6300626;28;20513;-77
2021/04/02 08:36:08;;;;;;;11.05;2.58;;;20.50;37.60;;;;;;6276070;28;20395;-78
2021/04/02 08:39:12;;;;;;;9.57;3.00;;;20.70;37.30;;;;;;6259278;28;20063;-79
2021/04/02 08:42:14;;;;;;;12.50;2.35;;;20.80;37.00;;;;;;6261447;28;20127;-77
2021/04/02 08:45:25;;;;;;;12.57;3.22;;;20.90;36.60;;;;;;6283304;28;20465;-78
2021/04/02 08:48:25;;;;;;;7.80;2.75;;;21.00;36.40;;;;;;6260201;28;20390;-78
2021/04/02 08:51:26;;;;;;;12.32;2.78;;;21.10;36.20;;;;;;6300173;28;20029;-78
2021/04/02 08:54:27;;;;;;;8.30;4.05;;;21.10;36.00;;;;;;6284300;28;20040;-78
2021/04/02 08:57:30;;;;;;;11.52;3.45;;;21.20;35.90;;;;;;6291200;28;20033;-78
2021/04/02 09:00:31;;;;;;;14.05;6.85;;;21.30;36.00;;;;;;6266517;28;20358;-77
2021/04/02 09:03:32;;;;;;;7.80;2.97;;;21.40;35.90;;;;;;6281673;28;20074;-78
2021/04/02 09:06:34;;;;;;;7.05;2.78;;;21.40;35.80;;;;;;6282259;28;20033;-78
2021/04/02 09:09:39;;;;;;;5.70;2.60;;;21.50;35.80;;;;;;6282569;28;20451;-77
2021/04/02 09:12:48;;;;;;;7.53;3.80;;;21.60;35.80;;;;;;6265570;28;20033;-79
2021/04/02 09:15:48;;;;;;;6.38;2.60;;;21.80;35.50;;;;;;6258426;28;20047;-79
2021/04/02 09:18:55;;;;;;;11.13;2.67;;;22.00;35.10;;;;;;6274227;28;20479;-80
2021/04/02 09:21:56;;;;;;;7.05;2.53;;;22.10;34.90;;;;;;6274456;28;20091;-78
2021/04/02 09:24:57;;;;;;;23.73;11.57;;;22.20;34.80;;;;;;6261426;28;20071;-78
2021/04/02 09:28:05;;;;;;;15.38;7.63;;;22.40;34.60;;;;;;6277189;28;20051;-78
2021/04/02 09:31:19;;;;;;;12.15;5.57;;;22.50;34.40;;;;;;6281775;28;20036;-78
2021/04/02 09:34:21;;;;;;;24.27;9.13;;;22.60;34.20;;;;;;6297074;28;20024;-78
2021/04/02 09:37:22;;;;;;;15.68;4.15;;;22.70;33.50;;;;;;6290403;28;20234;-78
2021/04/02 09:40:29;;;;;;;6.18;2.58;;;22.80;33.20;;;;;;6277482;28;20028;-79
2021/04/02 09:43:46;;;;;;;8.13;3.55;;;22.80;33.30;;;;;;6269888;28;20068;-80
2021/04/02 09:46:48;;;;;;;12.55;4.57;;;22.90;33.40;;;;;;6272849;28;20059;-77
2021/04/02 09:49:50;;;;;;;11.98;3.53;;;22.90;33.20;;;;;;6271044;28;20028;-78
2021/04/02 09:52:51;;;;;;;4.35;2.50;;;23.00;32.80;;;;;;6272798;28;20029;-79
2021/04/02 09:55:52;;;;;;;26.02;5.47;;;23.00;32.60;;;;;;6294507;28;20029;-78
2021/04/02 09:58:54;;;;;;;5.03;2.05;;;23.00;32.70;;;;;;6266657;28;20029;-79
2021/04/02 10:01:55;;;;;;;6.35;3.03;;;23.10;32.60;;;;;;6271895;28;20049;-79
2021/04/02 10:04:56;;;;;;;6.50;2.42;;;23.20;32.50;;;;;;6267045;28;20381;-79
2021/04/02 10:07:57;;;;;;;6.90;2.53;;;23.30;32.40;;;;;;6256364;28;20052;-78
2021/04/02 10:10:58;;;;;;;7.30;2.72;;;23.40;32.30;;;;;;6279850;28;20483;-79
2021/04/02 10:13:59;;;;;;;4.68;2.22;;;23.50;32.20;;;;;;6256288;28;20040;-79
2021/04/02 10:17:00;;;;;;;12.43;2.47;;;23.50;32.00;;;;;;6255126;28;20448;-79
2021/04/02 10:20:07;;;;;;;6.32;3.33;;;23.70;31.90;;;;;;6239676;28;20053;-78
2021/04/02 10:23:09;;;;;;;7.63;2.22;;;23.80;31.80;;;;;;6249658;28;20435;-78
2021/04/02 10:26:11;;;;;;;8.40;2.42;;;24.00;31.60;;;;;;6272736;28;20044;-79
2021/04/02 10:29:11;;;;;;;5.57;2.90;;;24.10;31.30;;;;;;6272786;28;20123;-80
2021/04/02 10:32:13;;;;;;;9.60;2.63;;;24.20;31.20;;;;;;6263558;28;20040;-78
2021/04/02 10:35:26;;;;;;;5.35;2.60;;;24.30;31.10;;;;;;6279532;28;20101;-79
2021/04/02 10:38:27;;;;;;;7.10;2.08;;;24.40;31.00;;;;;;6271230;28;20040;-79
2021/04/02 10:41:28;;;;;;;6.97;2.47;;;24.50;30.80;;;;;;6256691;28;20041;-78
2021/04/02 10:44:29;;;;;;;6.03;2.80;;;24.70;30.50;;;;;;6263954;28;20057;-78
2021/04/02 10:47:30;;;;;;;15.73;4.30;;;25.00;30.40;;;;;;6258385;28;20048;-78
2021/04/02 10:50:31;;;;;;;10.50;4.13;;;25.30;30.10;;;;;;6268099;28;20036;-78
2021/04/02 10:53:33;;;;;;;7.47;2.50;;;25.70;29.90;;;;;;6286897;28;20041;-78
2021/04/02 10:56:34;;;;;;;6.60;2.72;;;26.20;29.50;;;;;;6259242;28;20049;-79
2021/04/02 10:59:35;;;;;;;4.65;2.40;;;26.60;29.10;;;;;;6279520;28;20033;-78
2021/04/02 11:02:36;;;;;;;9.48;2.25;;;26.90;28.80;;;;;;6283892;28;20351;-78
2021/04/02 11:05:37;;;;;;;4.72;2.47;;;27.20;28.40;;;;;;6289618;28;20116;-79
2021/04/02 11:08:39;;;;;;;4.97;2.30;;;27.40;27.90;;;;;;6231635;28;20099;-78
2021/04/02 11:11:40;;;;;;;6.40;2.40;;;27.60;27.50;;;;;;6270560;28;20332;-78
2021/04/02 11:14:42;;;;;;;2.90;1.95;;;27.80;27.10;;;;;;6238171;28;20098;-78
2021/04/02 11:17:45;;;;;;;5.80;2.38;;;28.00;26.70;;;;;;6272258;28;20538;-78
2021/04/02 11:20:47;;;;;;;11.20;2.30;;;28.10;26.50;;;;;;6273306;28;20076;-77
2021/04/02 11:23:48;;;;;;;9.90;2.25;;;28.00;25.90;;;;;;6269133;28;20041;-79
2021/04/02 11:26:49;;;;;;;7.32;2.10;;;28.20;25.90;;;;;;6279219;28;20463;-78
2021/04/02 11:29:55;;;;;;;4.32;2.00;;;28.30;25.80;;;;;;6278803;28;20459;-77
2021/04/02 11:32:56;;;;;;;4.47;2.13;;;28.50;25.80;;;;;;6279735;28;20379;-80
2021/04/02 11:35:58;;;;;;;6.05;2.10;;;28.80;25.70;;;;;;6278128;28;20045;-78
2021/04/02 11:38:58;;;;;;;4.68;2.58;;;29.00;26.00;;;;;;6297374;28;20047;-78
2021/04/02 11:42:06;;;;;;;5.72;2.05;;;29.30;25.30;;;;;;6280338;28;20151;-79
2021/04/02 11:45:08;;;;;;;4.18;2.03;;;29.60;24.90;;;;;;6264478;28;20091;-78
2021/04/02 11:48:10;;;;;;;5.03;2.50;;;29.80;24.60;;;;;;6259190;28;20103;-78
2021/04/02 11:51:11;;;;;;;6.80;1.85;;;30.10;24.40;;;;;;6257379;28;20566;-78
2021/04/02 11:54:12;;;;;;;6.57;2.20;;;30.40;24.20;;;;;;6268359;28;20139;-78
2021/04/02 11:57:13;;;;;;;5.13;1.90;;;30.50;23.80;;;;;;6266200;28;20090;-80
2021/04/02 12:00:17;;;;;;;11.07;2.20;;;30.80;23.80;;;;;;6243400;28;20051;-79
2021/04/02 12:03:21;;;;;;;3.30;2.05;;;31.10;23.50;;;;;;6275941;28;20115;-79
2021/04/02 12:06:22;;;;;;;3.38;2.28;;;31.40;23.30;;;;;;6276067;28;20387;-77
2021/04/02 12:09:23;;;;;;;7.10;2.25;;;31.80;22.90;;;;;;6247352;28;20040;-77
2021/04/02 12:12:24;;;;;;;5.43;1.88;;;32.10;22.40;;;;;;6278966;28;20036;-79
2021/04/02 12:15:26;;;;;;;8.35;2.38;;;32.20;22.10;;;;;;6267006;28;20041;-79
2021/04/02 12:18:29;;;;;;;5.97;2.00;;;32.30;21.90;;;;;;6244638;28;20037;-79
2021/04/02 12:21:32;;;;;;;3.33;1.73;;;32.50;21.90;;;;;;6258581;28;20471;-80
2021/04/02 12:24:33;;;;;;;5.38;2.35;;;32.70;21.40;;;;;;6283372;28;20032;-78
2021/04/02 12:27:34;;;;;;;6.88;2.50;;;33.10;21.30;;;;;;6275486;28;20063;-78
2021/04/02 12:30:36;;;;;;;9.10;2.28;;;33.50;21.30;;;;;;6259196;28;20427;-79
2021/04/02 12:33:37;;;;;;;3.58;1.73;;;33.90;21.30;;;;;;6265509;28;20148;-78
2021/04/02 12:36:38;;;;;;;14.45;3.15;;;34.40;20.60;;;;;;6259344;28;20033;-80
2021/04/02 12:39:39;;;;;;;8.52;2.30;;;34.60;20.00;;;;;;6286524;28;20037;-78
2021/04/02 12:42:41;;;;;;;9.90;2.10;;;34.90;19.90;;;;;;6281713;28;20033;-78
2021/04/02 12:45:42;;;;;;;9.57;2.25;;;35.30;19.80;;;;;;6268197;28;20455;-79
2021/04/02 12:48:42;;;;;;;6.75;2.00;;;35.90;19.40;;;;;;6268675;28;20037;-78
2021/04/02 12:51:45;;;;;;;10.20;2.38;;;36.30;19.00;;;;;;6275426;28;20491;-78
2021/04/02 12:54:46;;;;;;;6.07;3.20;;;36.60;18.70;;;;;;6260579;28;20052;-79
2021/04/02 12:57:48;;;;;;;8.50;4.18;;;36.80;18.50;;;;;;6259372;28;20041;-78
2021/04/02 13:00:49;;;;;;;5.25;2.22;;;37.10;18.30;;;;;;6276236;28;20111;-79
2021/04/02 13:03:50;;;;;;;8.30;2.05;;;37.30;18.10;;;;;;6252935;28;20486;-78
2021/04/02 13:06:50;;;;;;;7.57;1.88;;;37.30;18.10;;;;;;6260990;28;20033;-80
2021/04/02 13:09:52;;;;;;;8.10;2.10;;;37.30;17.90;;;;;;6275931;28;20079;-79
2021/04/02 13:12:53;;;;;;;5.53;1.98;;;37.40;17.90;;;;;;6260613;28;20186;-79
2021/04/02 13:15:54;;;;;;;6.32;1.80;;;37.50;17.70;;;;;;6270908;28;20043;-78
2021/04/02 13:18:55;;;;;;;6.88;2.33;;;37.40;17.60;;;;;;6268003;28;20040;-79
2021/04/02 13:21:56;;;;;;;5.72;1.90;;;37.00;17.60;;;;;;6281874;28;20098;-78
2021/04/02 13:24:58;;;;;;;4.38;1.98;;;36.80;17.80;;;;;;6263209;28;20088;-78
2021/04/02 13:28:03;;;;;;;3.22;2.22;;;36.80;17.70;;;;;;6275012;28;20047;-78
2021/04/02 13:31:04;;;;;;;4.30;1.90;;;36.90;17.80;;;;;;6268685;28;20033;-78
2021/04/02 13:34:11;;;;;;;7.38;2.35;;;37.00;18.30;;;;;;6283357;28;20475;-78
2021/04/02 13:37:17;;;;;;;9.55;2.03;;;37.20;17.80;;;;;;6253746;28;20122;-78
2021/04/02 13:40:19;;;;;;;4.28;2.13;;;37.20;17.60;;;;;;6272832;28;20057;-77
2021/04/02 13:43:21;;;;;;;5.60;2.40;;;37.10;17.70;;;;;;6286871;28;20044;-80
2021/04/02 13:46:22;;;;;;;6.13;2.00;;;37.10;17.70;;;;;;6279037;28;20074;-80
2021/04/02 13:49:23;;;;;;;3.50;2.63;;;37.00;17.70;;;;;;6278218;28;20032;-79
2021/04/02 13:52:24;;;;;;;4.18;2.10;;;36.60;18.00;;;;;;6294507;28;20041;-79
2021/04/02 13:55:25;;;;;;;3.70;2.13;;;35.80;18.30;;;;;;6247251;28;20056;-79
2021/04/02 13:58:26;;;;;;;7.45;2.22;;;34.90;19.10;;;;;;6239875;28;20464;-79
2021/04/02 14:01:28;;;;;;;9.95;1.90;;;34.00;19.60;;;;;;6270553;28;20040;-79
2021/04/02 14:04:32;;;;;;;5.55;2.08;;;33.30;20.20;;;;;;6247261;28;20045;-79
2021/04/02 14:07:33;;;;;;;8.00;2.22;;;32.70;20.70;;;;;;6276685;28;20060;-79
2021/04/02 14:10:38;;;;;;;5.32;2.25;;;32.30;21.20;;;;;;6255816;28;20061;-78
2021/04/02 14:13:39;;;;;;;3.20;1.65;;;31.90;21.50;;;;;;6258344;28;20079;-80
2021/04/02 14:16:43;;;;;;;5.68;2.60;;;31.60;21.90;;;;;;6258843;28;20312;-79
2021/04/02 14:19:44;;;;;;;8.20;2.08;;;31.20;22.20;;;;;;6257519;28;20040;-79
2021/04/02 14:22:46;;;;;;;5.22;2.42;;;30.90;22.50;;;;;;6274251;28;20030;-79
2021/04/02 14:25:47;;;;;;;4.30;2.00;;;30.50;22.80;;;;;;6280045;28;20044;-80
2021/04/02 14:28:48;;;;;;;15.60;2.55;;;30.20;23.00;;;;;;6274662;28;20094;-79
2021/04/02 14:31:50;;;;;;;15.18;2.63;;;30.00;23.30;;;;;;6263401;28;20049;-79
2021/04/02 14:34:51;;;;;;;9.02;3.05;;;29.80;23.40;;;;;;6273450;28;20037;-79
2021/04/02 14:37:52;;;;;;;12.38;2.15;;;29.70;23.50;;;;;;6280048;28;20041;-79
2021/04/02 14:40:53;;;;;;;13.20;2.60;;;29.60;23.70;;;;;;6240934;28;20048;-79
2021/04/02 14:43:55;;;;;;;8.00;2.22;;;29.50;23.80;;;;;;6256692;28;20102;-79
2021/04/02 14:46:56;;;;;;;12.40;2.13;;;29.30;23.90;;;;;;6272750;28;20048;-78
2021/04/02 14:49:57;;;;;;;7.07;2.30;;;29.20;24.10;;;;;;6239489;28;20091;-78
2021/04/02 14:52:58;;;;;;;12.10;2.67;;;29.10;24.20;;;;;;6256134;28;20060;-78
2021/04/02 14:55:58;;;;;;;3.17;1.90;;;29.00;24.40;;;;;;6266781;28;20045;-78
2021/04/02 14:59:02;;;;;;;4.90;3.40;;;28.90;24.40;;;;;;6272985;28;20047;-79
2021/04/02 15:02:03;;;;;;;14.90;3.17;;;28.80;24.60;;;;;;6279762;28;20443;-78
2021/04/02 15:05:07;;;;;;;4.10;2.30;;;28.70;24.60;;;;;;6279546;28;20379;-78
2021/04/02 15:08:09;;;;;;;2.70;1.88;;;28.60;24.80;;;;;;6247730;28;20448;-79
2021/04/02 15:11:10;;;;;;;6.63;2.15;;;28.50;24.80;;;;;;6278484;28;20044;-80
2021/04/02 15:14:12;;;;;;;5.03;2.30;;;28.40;24.80;;;;;;6267512;28;20033;-80
2021/04/02 15:17:13;;;;;;;6.38;2.75;;;28.40;24.90;;;;;;6246016;28;20029;-78
2021/04/02 15:20:16;;;;;;;6.65;2.28;;;28.30;24.90;;;;;;6260808;28;20029;-78
2021/04/02 15:23:18;;;;;;;11.60;2.30;;;28.30;25.00;;;;;;6265424;28;20451;-79
2021/04/02 15:26:20;;;;;;;7.28;2.10;;;28.20;24.90;;;;;;6277693;28;20029;-78
2021/04/02 15:29:21;;;;;;;11.35;2.80;;;28.20;24.90;;;;;;6282083;28;20093;-79
2021/04/02 15:32:22;;;;;;;5.57;1.98;;;28.20;25.00;;;;;;6303167;28;20062;-79
2021/04/02 15:35:23;;;;;;;12.07;2.05;;;28.10;25.00;;;;;;6294772;28;20037;-78
2021/04/02 15:38:26;;;;;;;5.53;2.13;;;28.10;25.00;;;;;;6285368;28;20028;-78
2021/04/02 15:41:30;;;;;;;6.18;2.50;;;28.10;25.00;;;;;;6292876;28;20075;-79
2021/04/02 15:44:31;;;;;;;10.93;2.30;;;28.10;25.10;;;;;;6312498;28;20044;-79
2021/04/02 15:47:32;;;;;;;5.80;1.95;;;28.00;25.00;;;;;;6284244;28;20455;-78
2021/04/02 15:50:33;;;;;;;12.82;2.13;;;28.00;25.00;;;;;;6237510;28;20132;-78
2021/04/02 15:53:34;;;;;;;3.95;2.15;;;28.00;25.10;;;;;;6283496;28;20052;-78